Airfield :
LOGIN :

Register | Disclaimer

   EN    FR    IT 

 










Legend :    VFR   Marginal VFR   IFR   Intensive IFR   Very Intensive IFR
Visi :
Ceiling :
>= 8 km
>= 3000ft
5 to 8 km
1000 to 3000 ft
1500m to 5 km
500 to 1000 ft
800 to 1500m
200 to 500 ft
< 800m
< 200 ft
Symbols :   Thunderstorms  Fog  Heavy snow  Heavy precipitations  Wind > 20 kt
SIGMETs :     Misc.  Thunderstorms  Icing  Turbulence  Mountain Waves  Volcanic Ashes






- Airport Elevation : 202 ft
- IATA code : LGW


EGKK - London Gatwick

CURRENT METAR :
  • 251920Z 26011KT CAVOK 16/09 Q1016

EXPIRED METARs :
  • 251850Z 26010KT 9999 FEW038 16/09 Q1015
  • 251820Z 26013KT 9999 FEW039 17/09 Q1015
  • 251750Z 25012KT 9999 FEW039 17/10 Q1015
  • 251720Z 24010KT 210V270 9999 FEW027 SCT030 17/11 Q1014
  • 251650Z 25011KT 9999 SCT022 SCT034 17/12 Q1014

TAF TAF EGKK
Valid from the 25 at 18:00 until the 27 at 00:00 UTC


251652Z 2518/2624 25008KT 9999 SCT030
PROB30
TEMPO 2518/2519 9000 SHRA BKN011
BECMG 2620/2623 BKN014



MET'MAP, your aeronautical weather chart ! - Copyright ORBIFLY December 2007 - Disclaimer

ORBIFLY MET'MAP TEAM :

Programming & Development : Alexandra Zaïnal
Original concept : Baudouin d'Aumeries
Technical & hardware support : Manuel Goepfert
Assistance : Marc-Olivier Méhu

Contact : metmap@orbifly.com




SOURCES & CREDITS :

   NOAA